Time;durP1;ratioP1;P1;durP2;ratioP2;P2;SDS_P1;SDS_P2;PMS_P1;PMS_P2;Temp;Humidity;BMP_temperature;BMP_pressure;BME280_temperature;BME280_humidity;BME280_pressure;Samples;Min_cycle;Max_cycle;Signal;HPM_P1;HPM_P2
2023/05/31 00:00:03;;;;;;;0.30;0.30;;;;;;;12.64;63.48;101263.84;5126057;28;20023;-60
2023/05/31 00:02:29;;;;;;;0.30;0.30;;;;;;;12.61;63.55;101263.88;5125881;28;20038;-59
2023/05/31 00:04:55;;;;;;;0.30;0.30;;;;;;;12.61;63.63;101263.88;5125974;28;20095;-59
2023/05/31 00:07:20;;;;;;;0.30;0.30;;;;;;;12.60;63.85;101262.09;5126038;28;20499;-59
2023/05/31 00:09:46;;;;;;;0.30;0.30;;;;;;;12.59;63.92;101255.19;5125940;28;20023;-60
2023/05/31 00:12:11;;;;;;;0.30;0.30;;;;;;;12.57;63.90;101250.84;5125668;28;20118;-59
2023/05/31 00:14:36;;;;;;;0.30;0.30;;;;;;;12.54;64.00;101246.50;5125670;28;20020;-59
2023/05/31 00:17:02;;;;;;;0.50;0.50;;;;;;;12.54;63.95;101251.72;5125453;28;20026;-59
2023/05/31 00:19:27;;;;;;;0.30;0.30;;;;;;;12.55;64.02;101247.38;5125404;28;20036;-59
2023/05/31 00:21:53;;;;;;;0.32;0.32;;;;;;;12.34;64.06;101224.00;5125375;28;20020;-59
2023/05/31 00:24:18;;;;;;;0.30;0.30;;;;;;;12.52;64.00;101241.31;5125403;28;20110;-60
2023/05/31 00:26:43;;;;;;;0.30;0.30;;;;;;;12.53;64.05;101234.38;5125469;28;20042;-59
2023/05/31 00:29:09;;;;;;;0.30;0.30;;;;;;;12.52;64.16;101222.22;5125131;28;20425;-59
2023/05/31 00:31:34;;;;;;;0.60;0.60;;;;;;;12.48;64.24;101215.28;5125587;28;20028;-59
2023/05/31 00:34:00;;;;;;;0.40;0.40;;;;;;;12.47;64.61;101223.97;5125175;28;20035;-61
2023/05/31 00:36:25;;;;;;;0.40;0.40;;;;;;;12.47;64.36;101223.97;5125239;28;20485;-58
2023/05/31 00:38:51;;;;;;;0.30;0.30;;;;;;;12.49;64.50;101224.84;5125191;28;20027;-59
2023/05/31 00:41:20;;;;;;;0.30;0.30;;;;;;;12.52;64.27;101210.03;5125366;28;20023;-60
2023/05/31 00:43:45;;;;;;;0.40;0.40;;;;;;;12.53;64.33;101205.72;5124912;28;20030;-60
2023/05/31 00:46:27;;;;;;;0.30;0.30;;;;;;;12.56;64.48;101213.50;5125216;28;20019;-59
2023/05/31 00:48:55;;;;;;;0.30;0.30;;;;;;;12.58;64.59;101205.69;5124947;28;20031;-59
2023/05/31 00:51:21;;;;;;;0.35;0.35;;;;;;;12.58;64.83;101219.59;5125123;28;20024;-59
2023/05/31 00:53:47;;;;;;;0.60;0.60;;;;;;;12.60;64.52;101206.56;5124890;28;20012;-59
2023/05/31 00:56:13;;;;;;;1.63;1.52;;;;;;;12.59;64.56;101218.72;5124848;28;20020;-59
2023/05/31 00:58:40;;;;;;;0.30;0.30;;;;;;;12.60;64.44;101210.00;5124687;28;20050;-59
2023/05/31 01:01:07;;;;;;;0.35;0.35;;;;;;;12.56;64.56;101195.28;5124908;28;20023;-60
2023/05/31 01:03:32;;;;;;;0.30;0.30;;;;;;;12.62;64.59;101208.28;5124544;28;20047;-59
2023/05/31 01:05:57;;;;;;;0.30;0.30;;;;;;;12.64;64.34;101209.16;5124865;28;20016;-60
2023/05/31 01:08:23;;;;;;;0.32;0.32;;;;;;;12.65;64.38;101204.81;5124059;28;20020;-61
2023/05/31 01:10:52;;;;;;;0.30;0.30;;;;;;;12.70;64.35;101210.84;5124803;28;20019;-60
2023/05/31 01:13:29;;;;;;;0.30;0.30;;;;;;;12.73;64.39;101203.00;5124368;28;20028;-60
2023/05/31 01:16:10;;;;;;;0.30;0.30;;;;;;;12.75;64.20;101200.41;5124919;28;20023;-58
2023/05/31 01:18:44;;;;;;;0.30;0.30;;;;;;;12.78;63.89;101205.59;5124837;28;20019;-59
2023/05/31 01:21:11;;;;;;;1.00;1.00;;;;;;;12.80;63.78;101206.47;5124683;28;20051;-59
2023/05/31 01:24:13;;;;;;;0.40;0.40;;;;;;;12.82;63.76;101199.53;5124605;28;20085;-60
2023/05/31 01:26:44;;;;;;;0.43;0.43;;;;;;;12.82;63.77;101194.31;5124645;28;20047;-59
2023/05/31 01:29:13;;;;;;;0.40;0.40;;;;;;;12.84;63.69;101186.47;5124572;28;20034;-59
2023/05/31 01:31:40;;;;;;;0.30;0.30;;;;;;;12.86;63.84;101190.81;5124610;28;20042;-58
2023/05/31 01:34:06;;;;;;;0.30;0.30;;;;;;;12.86;63.83;101188.19;5124552;28;20023;-59
2023/05/31 01:36:32;;;;;;;0.30;0.30;;;;;;;12.84;64.11;101184.72;5124438;28;20024;-58
2023/05/31 01:38:57;;;;;;;0.30;0.30;;;;;;;12.86;64.07;101185.59;5124604;28;20037;-59
2023/05/31 01:41:25;;;;;;;0.30;0.30;;;;;;;12.85;64.48;101177.78;5106072;28;20118;-60
2023/05/31 01:43:52;;;;;;;0.40;0.40;;;;;;;12.76;64.26;101153.50;5124268;28;20051;-60
2023/05/31 01:46:18;;;;;;;0.30;0.30;;;;;;;12.84;64.20;101169.09;5124360;28;20027;-59
2023/05/31 01:48:45;;;;;;;0.30;0.30;;;;;;;12.83;64.37;101159.56;5124121;28;20031;-59
2023/05/31 01:51:14;;;;;;;0.30;0.30;;;;;;;12.85;64.15;101176.06;5124569;28;20046;-59
2023/05/31 01:53:40;;;;;;;0.30;0.30;;;;;;;12.82;64.20;101168.25;5105629;28;20023;-59
2023/05/31 01:56:08;;;;;;;0.30;0.30;;;;;;;12.70;64.16;101148.31;5124189;28;20028;-59
2023/05/31 01:58:36;;;;;;;0.30;0.30;;;;;;;12.79;64.38;101157.84;5105933;28;20031;-59
2023/05/31 02:01:01;;;;;;;0.30;0.30;;;;;;;12.75;64.60;101148.28;5124442;28;20031;-58
2023/05/31 02:03:27;;;;;;;0.30;0.30;;;;;;;12.70;64.58;101137.06;5124110;28;20023;-59
2023/05/31 02:05:56;;;;;;;0.30;0.30;;;;;;;12.72;64.71;101140.50;5124255;28;20061;-58
2023/05/31 02:08:22;;;;;;;0.50;0.50;;;;;;;12.69;64.70;101144.00;5124111;28;20028;-59
2023/05/31 02:10:48;;;;;;;0.30;0.30;;;;;;;12.73;64.50;101147.47;5105885;28;20016;-59
2023/05/31 02:13:13;;;;;;;0.30;0.30;;;;;;;12.72;64.67;101145.72;5123796;28;20095;-58
2023/05/31 02:15:41;;;;;;;0.30;0.30;;;;;;;12.64;64.99;101133.59;5123887;28;20035;-60
2023/05/31 02:18:07;;;;;;;0.55;0.55;;;;;;;12.62;65.22;101119.72;5123977;28;20027;-59
2023/05/31 02:20:33;;;;;;;0.30;0.30;;;;;;;12.61;65.53;101137.97;5127290;28;20152;-58
2023/05/31 02:22:58;;;;;;;0.30;0.30;;;;;;;12.58;65.67;101131.03;5127892;28;20024;-60
2023/05/31 02:25:24;;;;;;;0.40;0.40;;;;;;;12.54;65.67;101131.06;5127766;28;20034;-58
2023/05/31 02:27:49;;;;;;;0.30;0.30;;;;;;;12.54;65.64;101139.72;5127498;28;20026;-57
2023/05/31 02:30:15;;;;;;;0.30;0.30;;;;;;;12.54;65.96;101144.94;5127973;28;20026;-59
2023/05/31 02:32:41;;;;;;;1.48;1.38;;;;;;;12.50;65.98;101146.69;5127802;28;20038;-58
2023/05/31 02:35:08;;;;;;;0.30;0.30;;;;;;;12.47;66.15;101136.31;5127478;28;20023;-59
2023/05/31 02:37:35;;;;;;;0.30;0.30;;;;;;;12.49;66.19;101139.75;5127606;28;20019;-58
2023/05/31 02:40:01;;;;;;;0.30;0.30;;;;;;;12.49;66.00;101139.75;5127220;28;20028;-60
2023/05/31 02:42:26;;;;;;;0.40;0.40;;;;;;;12.47;66.33;101127.63;5127564;28;20039;-59
2023/05/31 02:44:52;;;;;;;0.30;0.30;;;;;;;12.48;66.69;101132.81;5127234;28;20019;-59
2023/05/31 02:47:17;;;;;;;0.30;0.30;;;;;;;12.46;66.81;101123.28;5127396;28;20051;-59
2023/05/31 02:49:43;;;;;;;0.30;0.30;;;;;;;12.45;67.22;101134.56;5127419;28;20028;-59
2023/05/31 02:52:08;;;;;;;0.30;0.30;;;;;;;12.46;67.37;101144.13;5127269;28;20038;-58
2023/05/31 02:54:33;;;;;;;0.30;0.30;;;;;;;12.53;67.05;101158.84;5127181;28;20042;-59
2023/05/31 02:56:59;;;;;;;0.30;0.30;;;;;;;12.53;67.13;101145.81;5127126;28;20030;-58
2023/05/31 02:59:25;;;;;;;0.30;0.30;;;;;;;12.49;67.25;101139.75;5127132;28;20016;-60
2023/05/31 03:01:51;;;;;;;0.30;0.30;;;;;;;12.61;67.40;101154.47;5127172;28;20024;-58
2023/05/31 03:04:16;;;;;;;0.30;0.30;;;;;;;12.65;67.55;101144.91;5126918;28;20015;-60
2023/05/31 03:06:42;;;;;;;0.50;0.50;;;;;;;12.71;67.89;101138.78;5126960;28;20037;-59
2023/05/31 03:09:08;;;;;;;0.30;0.30;;;;;;;12.83;68.23;101138.69;5127021;28;20031;-59
2023/05/31 03:11:33;;;;;;;0.30;0.30;;;;;;;13.04;68.33;101139.44;5127061;28;20054;-60
2023/05/31 03:13:59;;;;;;;0.30;0.30;;;;;;;13.32;68.05;101126.19;5126660;28;20047;-59
2023/05/31 03:16:25;;;;;;;0.93;0.93;;;;;;;13.55;67.70;101109.50;5126676;28;20027;-60
2023/05/31 03:18:51;;;;;;;0.40;0.40;;;;;;;13.90;66.50;101130.06;5126686;28;20073;-60
2023/05/31 03:21:17;;;;;;;0.30;0.30;;;;;;;14.16;66.29;101131.47;5126934;28;20019;-60
2023/05/31 03:23:42;;;;;;;0.30;0.30;;;;;;;14.41;65.44;101118.97;5126620;28;20106;-59
2023/05/31 03:26:08;;;;;;;0.60;0.60;;;;;;;14.65;65.12;101103.84;5126632;28;20099;-59
2023/05/31 03:28:33;;;;;;;0.30;0.30;;;;;;;14.94;64.64;101107.81;5125730;28;20031;-60
2023/05/31 03:30:59;;;;;;;0.30;0.30;;;;;;;15.18;63.50;101110.94;5126127;28;20084;-57
2023/05/31 03:33:24;;;;;;;0.43;0.43;;;;;;;15.25;62.92;101109.09;5126433;28;20028;-58
2023/05/31 03:35:50;;;;;;;0.30;0.30;;;;;;;15.38;62.74;101103.66;5126583;28;20019;-60
2023/05/31 03:38:15;;;;;;;0.30;0.30;;;;;;;15.66;63.07;101100.53;5126175;28;20023;-60
2023/05/31 03:40:41;;;;;;;0.30;0.30;;;;;;;16.09;62.13;101102.34;5126563;28;20019;-58
2023/05/31 03:43:06;;;;;;;0.30;0.30;;;;;;;16.43;61.68;101115.63;5126077;28;20023;-60
2023/05/31 03:45:31;;;;;;;0.30;0.30;;;;;;;16.69;60.80;101093.22;5126569;28;20024;-60
2023/05/31 03:47:57;;;;;;;1.10;0.60;;;;;;;17.03;59.26;101108.13;5126432;28;20041;-59
2023/05/31 03:50:22;;;;;;;0.20;0.20;;;;;;;17.28;58.86;101102.34;5126449;28;20073;-59
2023/05/31 03:52:47;;;;;;;0.30;0.30;;;;;;;17.45;58.33;101108.91;5107832;28;20034;-59
2023/05/31 03:55:13;;;;;;;0.30;0.30;;;;;;;17.69;58.55;101104.75;5126237;28;20024;-60
2023/05/31 03:57:38;;;;;;;0.82;0.82;;;;;;;18.03;57.36;101097.72;5125943;28;20040;-59
2023/05/31 04:00:05;;;;;;;0.20;0.20;;;;;;;18.27;56.33;101081.28;5125879;28;20034;-59
2023/05/31 04:02:31;;;;;;;1.58;1.48;;;;;;;18.31;54.40;101078.53;5126198;28;20254;-60
2023/05/31 04:04:57;;;;;;;0.30;0.30;;;;;;;18.50;54.55;101085.00;5125980;28;20395;-57
2023/05/31 04:07:22;;;;;;;0.20;0.20;;;;;;;18.65;53.93;101081.88;5125958;28;20023;-59
2023/05/31 04:09:48;;;;;;;0.30;0.30;;;;;;;18.81;52.98;101081.38;5125829;28;20042;-59
2023/05/31 04:12:13;;;;;;;0.30;0.30;;;;;;;18.80;52.01;101070.00;5125725;28;20463;-60
2023/05/31 04:14:39;;;;;;;0.20;0.20;;;;;;;18.89;52.27;101062.72;5125575;28;20475;-59
2023/05/31 04:17:05;;;;;;;1.77;1.67;;;;;;;18.89;51.74;101066.22;5125793;28;20031;-60
2023/05/31 04:19:30;;;;;;;0.20;0.20;;;;;;;18.89;51.89;101058.31;5125444;28;20070;-59
2023/05/31 04:21:56;;;;;;;0.30;0.30;;;;;;;19.12;51.90;101079.53;5125480;28;20024;-59
2023/05/31 04:24:21;;;;;;;2.03;1.85;;;;;;;19.24;51.55;101068.59;5125305;28;20012;-60
2023/05/31 04:26:47;;;;;;;0.40;0.40;;;;;;;19.50;51.08;101069.47;5125518;28;20024;-59
2023/05/31 04:29:13;;;;;;;0.20;0.20;;;;;;;19.78;50.88;101063.19;5125167;28;20015;-58
2023/05/31 04:31:39;;;;;;;0.20;0.20;;;;;;;20.06;49.31;101082.41;5125393;28;20030;-60
2023/05/31 04:34:04;;;;;;;0.50;0.50;;;;;;;19.91;48.91;101076.78;5106853;28;20019;-59
2023/05/31 04:36:32;;;;;;;1.15;1.10;;;;;;;19.69;49.68;101074.06;5124854;28;20023;-60
2023/05/31 04:38:58;;;;;;;0.20;0.20;;;;;;;19.39;49.79;101079.50;5124731;28;20065;-59
2023/05/31 04:41:26;;;;;;;14.48;3.05;;;;;;;19.15;50.21;101087.34;5124677;28;20031;-60
2023/05/31 04:43:53;;;;;;;0.20;0.20;;;;;;;18.92;50.79;101079.25;5124915;28;20428;-59
2023/05/31 04:46:21;;;;;;;0.65;0.65;;;;;;;18.76;51.13;101078.91;5125288;28;20092;-60
2023/05/31 04:48:49;;;;;;;0.20;0.20;;;;;;;19.11;52.05;101075.19;5124951;28;20023;-60
2023/05/31 04:51:18;;;;;;;0.20;0.20;;;;;;;19.42;51.24;101082.03;5125216;28;20039;-59
2023/05/31 04:53:47;;;;;;;0.30;0.30;;;;;;;19.60;50.21;101083.13;5125127;28;20335;-59
2023/05/31 04:56:13;;;;;;;0.20;0.20;;;;;;;19.84;49.79;101083.16;5125144;28;20110;-59
2023/05/31 04:58:39;;;;;;;0.28;0.28;;;;;;;19.91;49.53;101078.53;5124795;28;20043;-59
2023/05/31 05:01:06;;;;;;;0.20;0.20;;;;;;;20.27;49.56;101074.63;5125189;28;20046;-60
2023/05/31 05:03:32;;;;;;;0.30;0.30;;;;;;;20.74;48.19;101076.28;5124998;28;20023;-58
2023/05/31 05:06:01;;;;;;;0.20;0.20;;;;;;;21.01;47.89;101070.81;5125017;28;20063;-59
2023/05/31 05:08:26;;;;;;;0.40;0.40;;;;;;;21.29;47.57;101082.81;5125023;28;20050;-59
2023/05/31 05:10:52;;;;;;;3.22;1.38;;;;;;;21.89;47.66;101074.97;5124798;28;20027;-58
2023/05/31 05:13:17;;;;;;;0.20;0.20;;;;;;;22.66;47.35;101077.63;5124685;28;20024;-61
2023/05/31 05:15:43;;;;;;;0.20;0.20;;;;;;;23.13;46.40;101080.63;5124820;28;20168;-60
2023/05/31 05:18:08;;;;;;;1.48;1.38;;;;;;;23.09;44.40;101076.41;5124501;28;20024;-61
2023/05/31 05:20:34;;;;;;;6.03;1.10;;;;;;;22.90;44.81;101064.09;5124413;28;20048;-59
2023/05/31 05:23:06;;;;;;;0.73;0.73;;;;;;;23.14;43.68;101077.03;5124683;28;20181;-59
2023/05/31 05:25:32;;;;;;;0.20;0.20;;;;;;;22.94;43.08;101073.59;5124966;28;20019;-59
2023/05/31 05:27:57;;;;;;;0.20;0.20;;;;;;;22.93;43.14;101069.22;5124392;28;20084;-59
2023/05/31 05:30:23;;;;;;;0.20;0.20;;;;;;;23.10;43.24;101078.97;5124752;28;20166;-59
2023/05/31 05:32:48;;;;;;;0.20;0.20;;;;;;;23.39;42.28;101078.44;5124450;28;20343;-59
2023/05/31 05:35:14;;;;;;;0.30;0.30;;;;;;;23.37;41.90;101067.88;5124442;28;20087;-56
2023/05/31 05:37:39;;;;;;;0.20;0.20;;;;;;;23.83;41.98;101077.03;5124644;28;20023;-57
2023/05/31 05:40:07;;;;;;;0.10;0.10;;;;;;;24.00;41.75;101080.53;5124724;28;20398;-56
2023/05/31 05:42:36;;;;;;;4.47;1.95;;;;;;;24.21;41.59;101088.28;5124544;28;20023;-59
2023/05/31 05:45:03;;;;;;;6.05;1.55;;;;;;;24.06;40.88;101084.66;5124053;28;20016;-59
2023/05/31 05:47:28;;;;;;;1.20;1.10;;;;;;;23.91;40.78;101092.50;5124516;28;20030;-58
2023/05/31 05:49:54;;;;;;;0.10;0.10;;;;;;;23.42;40.60;101090.69;5124357;28;20403;-59
2023/05/31 05:52:19;;;;;;;0.20;0.20;;;;;;;22.98;41.18;101099.00;5124196;28;20038;-57
2023/05/31 05:54:45;;;;;;;0.28;0.28;;;;;;;22.74;42.21;101087.81;5128137;28;20019;-58
2023/05/31 05:57:10;;;;;;;0.30;0.30;;;;;;;22.88;42.24;101077.41;5128590;28;20023;-56
2023/05/31 05:59:37;;;;;;;0.20;0.20;;;;;;;23.26;42.13;101073.75;5128270;28;20024;-58
2023/05/31 06:02:03;;;;;;;0.75;0.50;;;;;;;23.41;41.53;101076.56;5110065;28;20531;-56
2023/05/31 06:04:28;;;;;;;1.10;0.80;;;;;;;23.63;41.04;101075.41;5128209;28;20039;-58
2023/05/31 06:06:54;;;;;;;0.20;0.20;;;;;;;23.83;41.25;101070.84;5128329;28;20031;-59
2023/05/31 06:09:19;;;;;;;0.13;0.13;;;;;;;23.91;40.72;101070.44;5128197;28;20024;-57
2023/05/31 06:11:45;;;;;;;0.20;0.20;;;;;;;24.19;40.32;101048.56;5128523;28;20170;-58
2023/05/31 06:14:10;;;;;;;1.77;1.63;;;;;;;24.51;40.12;101063.63;5127945;28;20042;-58
2023/05/31 06:16:36;;;;;;;0.20;0.20;;;;;;;24.73;39.84;101067.66;5128200;28;20472;-58
2023/05/31 06:19:02;;;;;;;0.15;0.15;;;;;;;25.14;38.78;101060.91;5127914;28;20024;-58
2023/05/31 06:21:27;;;;;;;0.30;0.30;;;;;;;25.37;37.96;101064.81;5128365;28;20019;-58
2023/05/31 06:23:52;;;;;;;0.10;0.10;;;;;;;25.27;37.46;101069.00;5128120;28;20024;-59
2023/05/31 06:26:18;;;;;;;0.20;0.20;;;;;;;25.14;37.49;101068.88;5127962;28;20038;-60
2023/05/31 06:28:45;;;;;;;0.82;0.82;;;;;;;25.25;38.16;101071.75;5127818;28;20024;-58
2023/05/31 06:31:10;;;;;;;3.70;2.08;;;;;;;25.66;36.80;101066.66;5109676;28;20034;-59
2023/05/31 06:33:35;;;;;;;0.57;0.57;;;;;;;25.32;36.79;101072.22;5127786;28;20047;-57
2023/05/31 06:36:02;;;;;;;0.10;0.10;;;;;;;25.28;37.04;101068.03;5128150;28;20479;-58
2023/05/31 06:38:27;;;;;;;0.65;0.65;;;;;;;25.11;37.89;101071.72;5127645;28;20024;-58
2023/05/31 06:40:53;;;;;;;0.32;0.32;;;;;;;25.19;37.71;101069.44;5127938;28;20031;-60
2023/05/31 06:43:18;;;;;;;0.10;0.10;;;;;;;25.25;36.95;101066.44;5127644;28;20528;-58
2023/05/31 06:45:43;;;;;;;0.20;0.20;;;;;;;25.47;36.94;101054.50;5127836;28;20043;-60
2023/05/31 06:48:09;;;;;;;0.10;0.10;;;;;;;25.68;36.62;101053.28;5127820;28;20031;-59
2023/05/31 06:50:34;;;;;;;0.20;0.20;;;;;;;26.05;36.78;101053.63;5127726;28;20067;-59
2023/05/31 06:53:00;;;;;;;0.20;0.20;;;;;;;26.27;36.32;101057.53;5127611;28;20024;-58
2023/05/31 06:55:26;;;;;;;0.30;0.30;;;;;;;26.40;36.18;101062.09;5127426;28;20024;-59
2023/05/31 06:57:51;;;;;;;6.07;2.08;;;;;;;26.38;36.30;101059.53;5127751;28;20031;-58
2023/05/31 07:00:17;;;;;;;0.10;0.10;;;;;;;26.47;35.26;101050.94;5127431;28;20020;-58
2023/05/31 07:02:43;;;;;;;0.40;0.40;;;;;;;26.31;35.01;101051.09;5127478;28;20048;-58
2023/05/31 07:05:08;;;;;;;0.10;0.10;;;;;;;26.48;35.22;101052.66;5126505;28;20035;-59
2023/05/31 07:07:33;;;;;;;0.20;0.20;;;;;;;26.28;35.34;101050.44;5127444;28;20025;-59
2023/05/31 07:09:59;;;;;;;0.10;0.10;;;;;;;26.14;35.45;101052.16;5127344;28;20024;-59
2023/05/31 07:12:24;;;;;;;0.20;0.20;;;;;;;26.03;35.26;101044.00;5127241;28;20027;-58
2023/05/31 07:14:50;;;;;;;0.10;0.10;;;;;;;26.08;35.88;101052.56;5126945;28;20012;-58
2023/05/31 07:17:15;;;;;;;0.10;0.10;;;;;;;26.07;35.61;101046.38;5127323;28;20031;-58
2023/05/31 07:19:48;;;;;;;0.98;0.90;;;;;;;26.23;34.95;101030.28;5126806;28;20047;-58
2023/05/31 07:22:14;;;;;;;1.60;1.35;;;;;;;26.32;35.22;101041.31;5127260;28;20139;-59
2023/05/31 07:24:40;;;;;;;45.35;2.38;;;;;;;26.46;35.21;101038.59;5108827;28;20016;-58
2023/05/31 07:27:07;;;;;;;0.45;0.45;;;;;;;26.44;34.50;101032.50;5127011;28;20030;-59
2023/05/31 07:29:32;;;;;;;0.10;0.10;;;;;;;26.26;34.74;101031.91;5126746;28;20028;-58
2023/05/31 07:31:58;;;;;;;0.57;0.57;;;;;;;25.86;35.00;101032.66;5126960;28;20071;-59
2023/05/31 07:34:23;;;;;;;0.17;0.17;;;;;;;25.62;35.32;101022.63;5126886;28;20034;-58
2023/05/31 07:36:49;;;;;;;0.30;0.30;;;;;;;25.35;35.78;101018.88;5126656;28;20069;-57
2023/05/31 07:39:15;;;;;;;0.40;0.40;;;;;;;25.18;35.72;101030.53;5126846;28;20125;-58
2023/05/31 07:41:41;;;;;;;0.10;0.10;;;;;;;25.09;36.08;101031.09;5126864;28;20024;-59
2023/05/31 07:44:07;;;;;;;0.20;0.20;;;;;;;25.11;36.21;101031.88;5126618;28;20051;-57
2023/05/31 07:46:32;;;;;;;27.90;1.85;;;;;;;25.09;36.25;101017.81;5126803;28;20031;-60
2023/05/31 07:48:58;;;;;;;2.97;1.50;;;;;;;25.02;36.09;101024.47;5126666;28;20024;-59
2023/05/31 07:51:23;;;;;;;9.95;1.67;;;;;;;24.94;36.57;101015.13;5126625;28;20106;-58
2023/05/31 07:53:48;;;;;;;0.85;0.63;;;;;;;24.98;36.54;101014.03;5108005;28;20102;-59
2023/05/31 07:56:14;;;;;;;0.10;0.10;;;;;;;25.00;37.05;101004.16;5126561;28;20079;-58
2023/05/31 07:58:39;;;;;;;0.32;0.32;;;;;;;25.19;36.81;101000.38;5126299;28;20023;-59
2023/05/31 08:01:05;;;;;;;0.20;0.20;;;;;;;25.59;36.47;101005.00;5126465;28;20112;-58
2023/05/31 08:03:31;;;;;;;1.50;1.40;;;;;;;26.07;35.98;100995.81;5126280;28;20028;-58
2023/05/31 08:05:56;;;;;;;0.25;0.25;;;;;;;26.42;35.04;100997.13;5126556;28;20112;-58
2023/05/31 08:08:22;;;;;;;0.82;0.50;;;;;;;26.61;34.53;100987.94;5126160;28;20023;-56
2023/05/31 08:10:47;;;;;;;0.20;0.20;;;;;;;26.78;34.70;100988.59;5126359;28;20042;-58
2023/05/31 08:13:13;;;;;;;0.98;0.98;;;;;;;27.21;33.95;100988.31;5125747;28;20493;-59
2023/05/31 08:15:38;;;;;;;0.32;0.32;;;;;;;27.40;33.84;100987.00;5126034;28;20028;-58
2023/05/31 08:18:04;;;;;;;0.10;0.10;;;;;;;27.63;33.03;100989.84;5126103;28;20030;-58
2023/05/31 08:20:29;;;;;;;0.85;0.85;;;;;;;27.66;32.60;100981.63;5125768;28;20126;-57
2023/05/31 08:22:55;;;;;;;0.20;0.20;;;;;;;27.75;33.06;100981.97;5125901;28;20083;-58
2023/05/31 08:25:22;;;;;;;20.85;1.75;;;;;;;28.27;32.77;100976.41;5125831;28;20024;-59
2023/05/31 08:27:47;;;;;;;0.20;0.20;;;;;;;28.78;32.05;100969.03;5125972;28;20027;-57
2023/05/31 08:30:13;;;;;;;3.40;0.90;;;;;;;29.13;30.73;100967.28;5125744;28;20365;-57
2023/05/31 08:32:42;;;;;;;0.20;0.20;;;;;;;29.14;31.05;100958.31;5125661;28;20102;-57
2023/05/31 08:35:12;;;;;;;0.20;0.20;;;;;;;29.44;31.52;100959.50;5125687;28;20023;-60
2023/05/31 08:37:37;;;;;;;0.20;0.20;;;;;;;30.07;30.66;100949.97;5125323;28;20028;-58
2023/05/31 08:40:06;;;;;;;0.45;0.45;;;;;;;30.33;30.40;100946.97;5125711;28;20107;-59
2023/05/31 08:42:52;;;;;;;2.33;2.13;;;;;;;30.37;29.11;100951.09;5125501;28;20027;-58
2023/05/31 08:45:18;;;;;;;0.13;0.13;;;;;;;30.50;29.76;100947.34;5110733;28;20119;-59
2023/05/31 08:47:45;;;;;;;0.10;0.10;;;;;;;30.74;29.16;100943.53;5125563;28;20019;-59
2023/05/31 08:50:12;;;;;;;0.10;0.10;;;;;;;31.20;28.43;100937.88;5125433;28;20019;-59
2023/05/31 08:52:38;;;;;;;0.10;0.10;;;;;;;31.55;27.64;100939.28;5125633;28;20131;-59
2023/05/31 08:55:04;;;;;;;1.38;1.27;;;;;;;31.81;27.91;100938.72;5125350;28;20027;-59
2023/05/31 08:57:31;;;;;;;0.10;0.10;;;;;;;32.23;27.69;100936.75;5125235;28;20016;-58
2023/05/31 08:59:57;;;;;;;0.30;0.30;;;;;;;32.33;26.20;100932.25;5125017;28;20251;-58
2023/05/31 09:02:23;;;;;;;0.10;0.10;;;;;;;32.08;26.31;100933.69;5125247;28;20487;-58
2023/05/31 09:04:50;;;;;;;0.25;0.25;;;;;;;31.43;27.18;100938.53;5125194;28;20023;-58
2023/05/31 09:07:16;;;;;;;1.08;1.08;;;;;;;31.33;27.72;100937.63;5125250;28;20011;-58
2023/05/31 09:09:41;;;;;;;0.20;0.20;;;;;;;31.31;27.25;100934.22;5125024;28;20065;-59
2023/05/31 09:12:07;;;;;;;1.05;1.05;;;;;;;31.16;27.40;100929.25;5125012;28;20505;-59
2023/05/31 09:14:33;;;;;;;0.55;0.55;;;;;;;30.99;27.28;100928.06;5124850;28;20053;-58
2023/05/31 09:16:59;;;;;;;0.10;0.10;;;;;;;30.87;27.54;100932.66;5124967;28;20024;-58
2023/05/31 09:19:25;;;;;;;1.10;1.00;;;;;;;30.88;27.87;100927.16;5124788;28;20112;-57
2023/05/31 09:21:52;;;;;;;0.10;0.10;;;;;;;31.11;27.88;100926.13;5124861;28;20027;-58
2023/05/31 09:24:19;;;;;;;0.10;0.10;;;;;;;31.68;27.38;100922.06;5124830;28;20480;-58
2023/05/31 09:26:49;;;;;;;0.52;0.52;;;;;;;31.61;26.72;100917.25;5124859;28;20083;-58
2023/05/31 09:29:17;;;;;;;0.27;0.27;;;;;;;31.27;26.99;100923.78;5124186;28;20068;-57
2023/05/31 09:31:43;;;;;;;0.15;0.15;;;;;;;30.66;27.59;100920.97;5125025;28;20034;-59
2023/05/31 09:34:25;;;;;;;0.45;0.45;;;;;;;30.19;27.75;100916.03;5124815;28;20023;-59
2023/05/31 09:36:51;;;;;;;0.10;0.10;;;;;;;30.34;28.32;100907.66;5124778;28;20102;-59
2023/05/31 09:39:16;;;;;;;0.15;0.15;;;;;;;30.66;27.59;100902.22;5124752;28;20107;-58
2023/05/31 09:41:42;;;;;;;0.10;0.10;;;;;;;31.19;27.46;100907.53;5124648;28;20511;-57
2023/05/31 09:44:08;;;;;;;0.25;0.25;;;;;;;31.48;26.76;100913.97;5124308;28;20027;-59
2023/05/31 09:46:34;;;;;;;0.32;0.32;;;;;;;31.57;26.91;100909.63;5124857;28;20046;-58
2023/05/31 09:49:06;;;;;;;0.25;0.25;;;;;;;31.73;25.84;100907.22;5124620;28;20023;-58
2023/05/31 09:51:32;;;;;;;0.80;0.40;;;;;;;32.28;26.19;100905.81;5124728;28;20023;-59
2023/05/31 09:54:01;;;;;;;0.10;0.10;;;;;;;32.49;25.70;100901.22;5124588;28;20023;-58
2023/05/31 09:56:28;;;;;;;0.85;0.85;;;;;;;32.58;24.40;100903.06;5124385;28;20015;-58
2023/05/31 09:58:56;;;;;;;0.98;0.90;;;;;;;32.72;24.24;100906.25;5124299;28;20023;-59
2023/05/31 10:01:22;;;;;;;0.10;0.10;;;;;;;32.51;23.74;100907.34;5124420;28;20023;-59
2023/05/31 10:03:49;;;;;;;0.10;0.10;;;;;;;32.34;23.19;100907.06;5124475;28;20023;-59
2023/05/31 10:06:19;;;;;;;0.68;0.68;;;;;;;32.06;22.80;100912.34;5124474;28;20043;-58
2023/05/31 10:08:48;;;;;;;0.10;0.10;;;;;;;31.84;23.28;100903.53;5124454;28;20032;-57
2023/05/31 10:11:21;;;;;;;0.10;0.10;;;;;;;31.43;23.72;100898.28;5124542;28;20028;-59
2023/05/31 10:13:49;;;;;;;0.82;0.82;;;;;;;31.39;23.86;100907.59;5124323;28;20035;-58
2023/05/31 10:16:16;;;;;;;0.10;0.10;;;;;;;31.31;24.28;100905.59;5124204;28;20027;-59
2023/05/31 10:18:48;;;;;;;0.10;0.10;;;;;;;30.90;24.34;100900.22;5124419;28;20023;-58
2023/05/31 10:21:22;;;;;;;0.10;0.10;;;;;;;30.90;24.60;100901.06;5124240;28;20047;-59
2023/05/31 10:24:01;;;;;;;0.10;0.10;;;;;;;30.84;24.76;100901.63;5124254;28;20027;-59
2023/05/31 10:26:35;;;;;;;0.40;0.40;;;;;;;30.98;24.59;100888.81;5124377;28;20020;-59
2023/05/31 10:29:16;;;;;;;0.10;0.10;;;;;;;30.76;24.24;100885.31;5124130;28;20019;-59
2023/05/31 10:31:48;;;;;;;3.97;1.83;;;;;;;30.71;24.41;100890.22;5124276;28;20028;-57
2023/05/31 10:34:22;;;;;;;0.10;0.10;;;;;;;30.77;23.80;100898.59;5124099;28;20304;-59
2023/05/31 10:36:51;;;;;;;0.10;0.10;;;;;;;30.49;23.61;100889.41;5124105;28;20047;-59
2023/05/31 10:39:24;;;;;;;0.20;0.20;;;;;;;30.21;23.77;100891.78;5124122;28;20099;-57
2023/05/31 10:42:20;;;;;;;0.10;0.10;;;;;;;29.87;24.02;100882.94;5127777;28;20030;-58
2023/05/31 10:45:05;;;;;;;0.40;0.40;;;;;;;29.96;24.38;100883.97;5111493;28;20053;-59
2023/05/31 10:47:58;;;;;;;0.10;0.10;;;;;;;29.63;24.53;100878.63;5127924;28;20028;-59
2023/05/31 10:50:24;;;;;;;0.10;0.10;;;;;;;29.10;24.78;100882.00;5127773;28;20015;-59
2023/05/31 10:52:51;;;;;;;0.10;0.10;;;;;;;29.09;24.80;100889.16;5127809;28;20033;-55
2023/05/31 10:55:17;;;;;;;0.10;0.10;;;;;;;28.44;24.55;100882.56;5127534;28;20031;-58
2023/05/31 10:57:43;;;;;;;0.10;0.10;;;;;;;27.47;25.84;100878.97;5127586;28;20028;-58
2023/05/31 11:00:11;;;;;;;0.10;0.10;;;;;;;26.76;27.08;100886.66;5127271;28;20053;-57
2023/05/31 11:02:45;;;;;;;1.85;1.85;;;;;;;26.21;27.54;100877.00;5127275;28;20015;-59
2023/05/31 11:05:21;;;;;;;0.68;0.68;;;;;;;25.66;28.28;100869.06;5127326;28;20023;-59
2023/05/31 11:07:48;;;;;;;2.45;1.50;;;;;;;25.00;29.03;100873.19;5127470;28;20024;-59
2023/05/31 11:10:28;;;;;;;0.20;0.20;;;;;;;24.50;29.64;100874.34;5127258;28;20045;-59
2023/05/31 11:12:56;;;;;;;0.20;0.20;;;;;;;24.23;29.96;100875.03;5126900;28;20023;-57
2023/05/31 11:15:21;;;;;;;0.20;0.20;;;;;;;23.73;30.52;100877.00;5126951;28;20490;-58
2023/05/31 11:17:56;;;;;;;0.10;0.10;;;;;;;23.37;30.93;100884.25;5127029;28;20047;-58
2023/05/31 11:20:26;;;;;;;0.10;0.10;;;;;;;23.19;31.39;100886.09;5126863;28;20043;-57
2023/05/31 11:23:19;;;;;;;0.10;0.10;;;;;;;22.94;31.66;100882.13;5127127;28;20053;-60